Time;durP1;ratioP1;P1;durP2;ratioP2;P2;SDS_P1;SDS_P2;PMS_P1;PMS_P2;Temp;Humidity;BMP_temperature;BMP_pressure;BME280_temperature;BME280_humidity;BME280_pressure;Samples;Min_cycle;Max_cycle;Signal;HPM_P1;HPM_P2
2022/05/20 00:02:05;;;;;;;8.60;1.92;;;16.90;61.50;;;;;;5038822;28;20033;-62
2022/05/20 00:04:31;;;;;;;7.97;1.77;;;16.80;61.40;;;;;;5039085;28;20424;-62
2022/05/20 00:06:56;;;;;;;7.32;1.92;;;16.80;61.80;;;;;;5038882;28;20022;-62
2022/05/20 00:09:22;;;;;;;7.47;1.80;;;16.70;62.00;;;;;;5038539;28;20021;-62
2022/05/20 00:11:48;;;;;;;6.13;2.13;;;16.70;61.80;;;;;;5038895;28;20481;-62
2022/05/20 00:14:14;;;;;;;7.60;2.53;;;16.70;61.80;;;;;;5038728;28;20022;-62
2022/05/20 00:16:40;;;;;;;6.07;1.63;;;16.70;61.10;;;;;;5038460;28;20025;-62
2022/05/20 00:19:08;;;;;;;7.78;1.98;;;16.60;61.50;;;;;;5038363;28;20469;-61
2022/05/20 00:21:34;;;;;;;6.53;1.67;;;16.60;61.20;;;;;;5038615;28;20436;-62
2022/05/20 00:24:00;;;;;;;9.18;2.10;;;16.50;61.20;;;;;;5038179;28;20083;-62
2022/05/20 00:26:26;;;;;;;10.10;2.38;;;16.50;61.40;;;;;;5038394;28;20096;-62
2022/05/20 00:28:53;;;;;;;4.32;1.70;;;16.50;61.40;;;;;;5036934;28;20104;-62
2022/05/20 00:31:21;;;;;;;5.13;1.58;;;16.50;61.30;;;;;;5038565;28;20025;-62
2022/05/20 00:33:47;;;;;;;8.75;2.20;;;16.40;61.40;;;;;;5038277;28;20128;-62
2022/05/20 00:36:13;;;;;;;7.32;1.40;;;16.40;61.10;;;;;;5038135;28;20100;-62
2022/05/20 00:38:39;;;;;;;6.00;1.65;;;16.40;60.90;;;;;;5038205;28;20111;-62
2022/05/20 00:41:06;;;;;;;8.02;2.00;;;16.40;61.30;;;;;;5037957;28;20020;-62
2022/05/20 00:43:39;;;;;;;7.28;2.03;;;16.40;61.40;;;;;;5037847;28;20033;-62
2022/05/20 00:46:12;;;;;;;10.18;1.75;;;16.50;61.50;;;;;;5038214;28;20016;-62
2022/05/20 00:48:39;;;;;;;7.78;1.77;;;16.50;61.20;;;;;;5037896;28;20440;-62
2022/05/20 00:51:20;;;;;;;10.13;2.03;;;16.50;61.20;;;;;;5038030;28;20021;-62
2022/05/20 00:53:56;;;;;;;6.47;1.80;;;16.50;60.70;;;;;;5038249;28;20026;-62
2022/05/20 00:56:28;;;;;;;9.65;2.00;;;16.40;61.00;;;;;;5037516;28;20060;-62
2022/05/20 00:58:56;;;;;;;6.78;1.85;;;16.40;61.20;;;;;;5037496;28;20033;-62
2022/05/20 01:01:22;;;;;;;7.40;1.90;;;16.30;61.20;;;;;;5037668;28;20032;-62
2022/05/20 01:03:50;;;;;;;7.10;1.90;;;16.30;61.40;;;;;;5037566;28;20026;-62
2022/05/20 01:06:16;;;;;;;7.35;1.90;;;16.30;61.50;;;;;;5037809;28;20077;-62
2022/05/20 01:08:42;;;;;;;6.00;1.52;;;16.30;61.60;;;;;;5037913;28;20018;-62
2022/05/20 01:11:08;;;;;;;6.05;1.95;;;16.30;61.50;;;;;;5037570;28;20022;-62
2022/05/20 01:13:35;;;;;;;6.93;1.77;;;16.30;61.40;;;;;;5037278;28;20040;-62
2022/05/20 01:16:04;;;;;;;7.97;2.22;;;16.30;61.90;;;;;;5037507;28;20802;-62
2022/05/20 01:18:36;;;;;;;7.18;1.90;;;16.20;62.00;;;;;;5037477;28;20025;-62
2022/05/20 01:21:02;;;;;;;6.18;1.75;;;16.20;61.90;;;;;;5037659;28;20384;-62
2022/05/20 01:23:29;;;;;;;4.95;1.48;;;16.10;61.60;;;;;;5036002;28;20030;-62
2022/05/20 01:25:58;;;;;;;6.32;1.67;;;16.10;61.40;;;;;;5037371;28;20017;-62
2022/05/20 01:28:27;;;;;;;7.15;1.58;;;16.10;61.20;;;;;;5037320;28;20026;-62
2022/05/20 01:31:13;;;;;;;6.88;1.90;;;16.10;61.70;;;;;;5037392;28;20033;-62
2022/05/20 01:33:43;;;;;;;6.63;1.38;;;16.00;61.90;;;;;;5037502;28;20036;-61
2022/05/20 01:36:13;;;;;;;9.50;2.17;;;16.00;61.50;;;;;;5037563;28;20037;-62
2022/05/20 01:38:39;;;;;;;4.90;2.10;;;16.00;61.50;;;;;;5037463;28;20036;-62
2022/05/20 01:41:23;;;;;;;6.88;1.75;;;16.00;61.90;;;;;;5037370;28;20140;-62
2022/05/20 01:44:09;;;;;;;5.17;1.90;;;16.00;62.10;;;;;;5037344;28;20025;-62
2022/05/20 01:46:35;;;;;;;5.28;1.90;;;16.00;61.70;;;;;;5036982;28;20256;-62
2022/05/20 01:49:06;;;;;;;7.18;1.60;;;16.00;61.80;;;;;;5037124;28;20024;-62
2022/05/20 01:51:50;;;;;;;6.20;1.65;;;16.00;62.00;;;;;;5037207;28;20101;-62
2022/05/20 01:54:54;;;;;;;5.25;1.85;;;16.00;61.80;;;;;;5039231;28;20022;-62
2022/05/20 01:57:39;;;;;;;6.35;1.67;;;16.00;61.50;;;;;;5040509;28;20049;-63
2022/05/20 02:00:18;;;;;;;7.50;1.98;;;16.00;61.70;;;;;;5041009;28;20035;-63
2022/05/20 02:03:00;;;;;;;6.60;1.98;;;15.90;61.90;;;;;;5040665;28;20053;-63
2022/05/20 02:05:38;;;;;;;9.93;2.03;;;15.90;61.80;;;;;;5040990;28;20105;-63
2022/05/20 02:08:25;;;;;;;7.10;2.00;;;15.90;62.00;;;;;;5041088;28;20022;-63
2022/05/20 02:11:08;;;;;;;6.72;1.70;;;15.90;62.00;;;;;;5040830;28;20029;-63
2022/05/20 02:13:38;;;;;;;6.50;1.80;;;15.90;61.80;;;;;;5040924;28;20064;-63
2022/05/20 02:16:12;;;;;;;7.53;1.80;;;15.80;61.80;;;;;;5040916;28;20109;-63
2022/05/20 02:18:47;;;;;;;7.40;2.22;;;15.80;62.30;;;;;;5041161;28;20037;-63
2022/05/20 02:21:17;;;;;;;5.05;1.67;;;15.80;62.20;;;;;;5040378;28;20103;-63
2022/05/20 02:23:50;;;;;;;8.65;2.40;;;15.80;62.10;;;;;;5040507;28;20029;-63
2022/05/20 02:26:21;;;;;;;6.95;1.50;;;15.90;62.40;;;;;;5040729;28;20035;-63
2022/05/20 02:28:52;;;;;;;7.57;2.15;;;15.90;62.20;;;;;;5040511;28;20022;-63
2022/05/20 02:31:25;;;;;;;7.25;1.95;;;15.90;62.40;;;;;;5040681;28;20109;-63
2022/05/20 02:33:51;;;;;;;5.55;1.58;;;15.90;62.20;;;;;;5040621;28;20028;-63
2022/05/20 02:36:32;;;;;;;4.68;1.65;;;15.90;62.40;;;;;;5040287;28;20034;-63
2022/05/20 02:38:58;;;;;;;7.82;1.85;;;15.90;62.20;;;;;;5040084;28;20524;-63
2022/05/20 02:41:25;;;;;;;5.35;1.60;;;15.90;62.50;;;;;;5040424;28;20053;-63
2022/05/20 02:43:51;;;;;;;5.60;1.60;;;15.90;62.40;;;;;;5040496;28;20044;-63
2022/05/20 02:46:17;;;;;;;6.70;2.38;;;15.90;62.80;;;;;;5040107;28;20017;-63
2022/05/20 02:48:43;;;;;;;6.75;1.85;;;15.90;62.60;;;;;;5040143;28;20017;-63
2022/05/20 02:51:09;;;;;;;7.65;2.10;;;15.90;62.30;;;;;;5040355;28;20021;-63
2022/05/20 02:53:35;;;;;;;9.05;2.25;;;16.00;62.70;;;;;;5040316;28;20032;-63
2022/05/20 02:56:03;;;;;;;8.80;1.90;;;15.90;62.60;;;;;;5039981;28;20050;-63
2022/05/20 03:04:11;;;;;;;5.63;1.95;;;16.00;62.90;;;;;;5040332;28;20484;-63
2022/05/20 03:06:42;;;;;;;6.38;1.77;;;16.00;62.30;;;;;;5038850;28;20021;-63
2022/05/20 03:09:09;;;;;;;10.23;2.22;;;16.00;62.30;;;;;;5040258;28;20032;-63
2022/05/20 03:11:36;;;;;;;5.90;1.70;;;16.10;62.40;;;;;;5040022;28;20366;-63
2022/05/20 03:14:03;;;;;;;7.72;2.17;;;16.00;62.90;;;;;;5039200;28;20033;-63
2022/05/20 03:16:31;;;;;;;6.32;1.85;;;16.10;63.20;;;;;;5039688;28;20083;-63
2022/05/20 03:18:57;;;;;;;4.03;1.77;;;16.00;62.90;;;;;;5039810;28;20036;-63
2022/05/20 03:21:23;;;;;;;6.97;2.03;;;16.10;62.90;;;;;;5040207;28;20067;-63
2022/05/20 03:23:49;;;;;;;6.63;1.65;;;16.10;62.70;;;;;;5040020;28;20590;-63
2022/05/20 03:26:18;;;;;;;8.73;1.80;;;16.10;62.50;;;;;;5039694;28;20021;-63
2022/05/20 03:28:44;;;;;;;7.22;2.22;;;16.10;62.60;;;;;;5039865;28;20410;-63
2022/05/20 03:31:11;;;;;;;6.18;1.80;;;16.10;62.90;;;;;;5039573;28;20494;-63
2022/05/20 03:33:38;;;;;;;5.40;1.65;;;16.10;63.00;;;;;;5039405;28;20037;-63
2022/05/20 03:36:05;;;;;;;4.28;1.40;;;16.20;63.10;;;;;;5039497;28;20094;-63
2022/05/20 03:38:31;;;;;;;7.85;1.92;;;16.20;63.00;;;;;;5039381;28;20595;-63
2022/05/20 03:40:57;;;;;;;6.30;1.85;;;16.20;63.00;;;;;;5039379;28;20094;-63
2022/05/20 03:43:23;;;;;;;6.85;1.80;;;16.20;63.00;;;;;;5039504;28;20030;-63
2022/05/20 03:45:51;;;;;;;6.28;1.65;;;16.30;63.30;;;;;;5039322;28;20478;-63
2022/05/20 03:48:17;;;;;;;8.52;2.00;;;16.30;63.30;;;;;;5039452;28;20030;-63
2022/05/20 03:50:43;;;;;;;4.07;1.48;;;16.30;63.20;;;;;;5039245;28;20031;-63
2022/05/20 03:53:09;;;;;;;3.53;1.50;;;16.30;63.40;;;;;;5039161;28;20038;-63
2022/05/20 03:55:35;;;;;;;8.65;2.42;;;16.30;63.30;;;;;;5039114;28;20041;-63
2022/05/20 03:58:00;;;;;;;10.32;2.35;;;16.30;63.30;;;;;;5039008;28;20029;-63
2022/05/20 04:00:26;;;;;;;5.90;1.80;;;16.30;63.20;;;;;;5038858;28;20026;-63
2022/05/20 04:02:52;;;;;;;5.50;1.70;;;16.30;63.30;;;;;;5039085;28;20045;-63
2022/05/20 04:05:18;;;;;;;6.00;1.90;;;16.30;63.20;;;;;;5039181;28;20483;-63
2022/05/20 04:07:44;;;;;;;6.45;2.40;;;16.30;62.90;;;;;;5038854;28;20359;-63
2022/05/20 04:10:10;;;;;;;6.50;1.80;;;16.20;63.30;;;;;;5039308;28;20026;-63
2022/05/20 04:12:41;;;;;;;6.95;1.95;;;16.20;63.20;;;;;;5038692;28;20107;-63
2022/05/20 04:15:12;;;;;;;6.78;2.13;;;16.20;63.60;;;;;;5038775;28;20021;-63
2022/05/20 04:17:38;;;;;;;5.70;1.95;;;16.20;63.70;;;;;;5038657;28;20040;-63
2022/05/20 04:20:06;;;;;;;8.10;1.73;;;16.20;63.60;;;;;;5038671;28;20021;-63
2022/05/20 04:22:36;;;;;;;5.93;1.77;;;16.20;63.60;;;;;;5038454;28;20053;-63
2022/05/20 04:25:04;;;;;;;7.35;1.70;;;16.30;63.80;;;;;;5038554;28;20029;-63
2022/05/20 04:27:30;;;;;;;7.47;2.15;;;16.20;63.70;;;;;;5038562;28;20030;-63
2022/05/20 04:29:57;;;;;;;5.32;1.67;;;16.30;63.70;;;;;;5038426;28;20032;-63
2022/05/20 04:32:23;;;;;;;4.88;1.70;;;16.30;63.40;;;;;;5038513;28;20056;-63
2022/05/20 04:34:49;;;;;;;6.15;1.80;;;16.30;64.10;;;;;;5038624;28;20064;-63
2022/05/20 04:37:15;;;;;;;5.72;1.83;;;16.30;64.10;;;;;;5037054;28;20473;-63
2022/05/20 04:39:41;;;;;;;5.43;1.85;;;16.30;64.00;;;;;;5038501;28;20124;-63
2022/05/20 04:47:39;;;;;;;5.95;1.65;;;16.20;63.90;;;;;;5038848;28;20082;-63
2022/05/20 04:50:06;;;;;;;6.22;1.77;;;16.10;63.60;;;;;;5038359;28;20057;-63
2022/05/20 04:52:32;;;;;;;5.50;1.52;;;16.00;64.10;;;;;;5038260;28;20477;-63
2022/05/20 04:54:58;;;;;;;8.57;1.95;;;16.00;64.40;;;;;;5038066;28;20057;-63
2022/05/20 04:57:48;;;;;;;7.82;2.00;;;16.00;64.10;;;;;;5038203;28;20025;-63
2022/05/20 05:00:17;;;;;;;7.22;2.20;;;16.00;63.80;;;;;;5037724;28;20029;-63
2022/05/20 05:02:44;;;;;;;8.82;2.00;;;16.00;64.10;;;;;;5037642;28;20092;-63
2022/05/20 05:05:12;;;;;;;8.15;2.35;;;16.00;64.60;;;;;;5037896;28;20571;-63
2022/05/20 05:07:42;;;;;;;4.50;1.67;;;16.00;64.80;;;;;;5038064;28;20025;-63
2022/05/20 05:10:10;;;;;;;9.02;2.50;;;16.00;64.80;;;;;;5037830;28;20473;-63
2022/05/20 05:12:36;;;;;;;6.90;2.00;;;15.90;65.00;;;;;;5037817;28;20500;-63
2022/05/20 05:15:02;;;;;;;7.43;2.15;;;15.90;65.10;;;;;;5037961;28;20017;-63
2022/05/20 05:20:20;;;;;;;7.65;2.00;;;15.80;65.60;;;;;;5037959;28;20060;-63
2022/05/20 05:22:46;;;;;;;6.88;2.33;;;15.80;65.90;;;;;;5037484;28;20075;-63
2022/05/20 05:25:14;;;;;;;8.35;2.47;;;15.80;65.50;;;;;;5037653;28;20029;-63
2022/05/20 05:27:40;;;;;;;7.60;2.00;;;15.80;65.60;;;;;;5037197;28;20017;-63
2022/05/20 05:30:07;;;;;;;9.00;2.30;;;15.80;66.30;;;;;;5037480;28;20025;-63
2022/05/20 05:32:35;;;;;;;6.93;2.13;;;15.80;66.80;;;;;;5037101;28;20079;-63
2022/05/20 05:35:02;;;;;;;8.25;1.95;;;15.80;66.00;;;;;;5036963;28;20025;-63
2022/05/20 05:37:27;;;;;;;6.97;1.90;;;15.80;65.90;;;;;;5037543;28;20022;-63
2022/05/20 05:39:53;;;;;;;6.82;1.98;;;15.80;65.80;;;;;;5037365;28;20036;-63
2022/05/20 05:42:20;;;;;;;5.55;1.90;;;15.70;65.90;;;;;;5035662;28;20065;-63
2022/05/20 05:44:46;;;;;;;7.15;2.13;;;15.70;66.50;;;;;;5037368;28;20032;-63
2022/05/20 05:47:12;;;;;;;9.07;1.98;;;15.70;66.00;;;;;;5037598;28;20063;-63
2022/05/20 05:49:38;;;;;;;5.93;1.92;;;15.70;66.40;;;;;;5036257;28;20049;-63
2022/05/20 05:52:04;;;;;;;9.63;2.15;;;15.70;66.20;;;;;;5036780;28;20025;-63
2022/05/20 05:54:32;;;;;;;8.65;2.17;;;15.70;65.80;;;;;;5036346;28;20021;-63
2022/05/20 05:56:58;;;;;;;6.78;1.90;;;15.70;65.40;;;;;;5037309;28;20144;-63
2022/05/20 05:59:24;;;;;;;5.35;1.80;;;15.70;65.50;;;;;;5037145;28;20041;-63
2022/05/20 06:01:49;;;;;;;5.82;1.95;;;15.70;65.70;;;;;;5036667;28;20021;-63
2022/05/20 06:04:15;;;;;;;9.20;2.08;;;15.70;65.30;;;;;;5036968;28;20033;-63
2022/05/20 06:06:41;;;;;;;9.70;2.13;;;15.70;65.00;;;;;;5036937;28;20028;-63
2022/05/20 06:09:07;;;;;;;7.93;2.13;;;15.60;64.90;;;;;;5037117;28;20028;-63
2022/05/20 06:11:32;;;;;;;8.55;1.90;;;15.60;64.70;;;;;;5037181;28;20018;-63
2022/05/20 06:13:58;;;;;;;8.38;1.90;;;15.60;65.00;;;;;;5037293;28;20041;-63
2022/05/20 06:16:24;;;;;;;6.50;1.90;;;15.70;64.80;;;;;;5036001;28;20025;-63
2022/05/20 06:18:51;;;;;;;9.27;1.63;;;15.70;64.80;;;;;;5036829;28;20033;-63
2022/05/20 06:21:17;;;;;;;9.13;1.88;;;15.70;64.90;;;;;;5036552;28;20494;-63
2022/05/20 06:23:43;;;;;;;5.38;2.03;;;15.80;64.50;;;;;;5036476;28;20103;-63
2022/05/20 06:26:08;;;;;;;4.82;1.58;;;15.80;64.40;;;;;;5036539;28;20017;-63
2022/05/20 06:28:34;;;;;;;5.90;1.77;;;15.80;64.30;;;;;;5036537;28;20028;-63
2022/05/20 06:31:00;;;;;;;9.60;2.20;;;15.80;64.40;;;;;;5036689;28;20014;-63
2022/05/20 06:33:26;;;;;;;7.63;1.92;;;15.80;64.40;;;;;;5036511;28;20029;-63
2022/05/20 06:41:20;;;;;;;8.27;2.38;;;15.90;64.40;;;;;;5040475;28;20041;-63
2022/05/20 06:43:46;;;;;;;7.95;1.75;;;16.00;64.60;;;;;;5040189;28;20022;-63
2022/05/20 06:46:12;;;;;;;6.93;2.50;;;16.00;64.40;;;;;;5040173;28;20018;-63
2022/05/20 06:48:41;;;;;;;7.20;1.98;;;16.00;64.50;;;;;;5039874;28;20104;-63
2022/05/20 06:51:09;;;;;;;7.68;2.28;;;16.10;64.60;;;;;;5039882;28;20013;-63
2022/05/20 06:53:35;;;;;;;8.90;2.25;;;16.10;64.60;;;;;;5039637;28;20112;-63
2022/05/20 06:56:01;;;;;;;6.15;1.80;;;16.20;64.50;;;;;;5039633;28;20052;-63
2022/05/20 06:58:27;;;;;;;8.32;2.30;;;16.30;64.80;;;;;;5039736;28;20497;-63
2022/05/20 07:00:53;;;;;;;7.18;1.85;;;16.30;64.50;;;;;;5039674;28;20026;-63
2022/05/20 07:03:21;;;;;;;11.35;2.53;;;16.30;64.60;;;;;;5039575;28;20056;-63
2022/05/20 07:05:48;;;;;;;7.43;2.05;;;16.40;64.70;;;;;;5040073;28;20028;-65
2022/05/20 07:08:14;;;;;;;7.75;2.00;;;16.40;64.80;;;;;;5039542;28;20017;-65
2022/05/20 07:10:40;;;;;;;10.05;2.00;;;16.40;64.80;;;;;;5039520;28;20022;-66
2022/05/20 07:13:07;;;;;;;6.90;2.00;;;16.40;64.90;;;;;;5039882;28;20114;-65
2022/05/20 07:15:33;;;;;;;7.05;1.80;;;16.40;65.20;;;;;;5039549;28;20021;-65
2022/05/20 07:17:59;;;;;;;7.30;2.03;;;16.40;65.10;;;;;;5039308;28;20545;-65
2022/05/20 07:20:25;;;;;;;7.68;1.90;;;16.50;64.70;;;;;;5039556;28;20052;-65
2022/05/20 07:22:50;;;;;;;7.93;1.80;;;16.50;64.70;;;;;;5039184;28;20041;-65
2022/05/20 07:25:18;;;;;;;10.25;2.13;;;16.60;64.80;;;;;;5039489;28;20022;-65
2022/05/20 07:27:45;;;;;;;8.27;1.90;;;16.60;64.70;;;;;;5039242;28;20022;-65
2022/05/20 07:30:12;;;;;;;7.72;1.90;;;16.60;65.00;;;;;;5037724;28;20022;-65
2022/05/20 07:32:38;;;;;;;9.10;2.50;;;16.70;65.40;;;;;;5039109;28;20093;-65
2022/05/20 07:35:04;;;;;;;7.22;2.13;;;16.80;64.90;;;;;;5038837;28;20441;-65
2022/05/20 07:37:30;;;;;;;8.48;2.03;;;16.90;64.60;;;;;;5038949;28;20021;-65
2022/05/20 07:39:57;;;;;;;9.65;2.10;;;16.90;64.10;;;;;;5039015;28;20029;-65
2022/05/20 07:42:23;;;;;;;6.70;1.95;;;16.90;63.90;;;;;;5038172;28;20143;-66
2022/05/20 07:44:50;;;;;;;6.68;2.15;;;16.90;63.80;;;;;;5037523;28;20025;-66
2022/05/20 07:47:17;;;;;;;6.85;2.20;;;16.90;63.70;;;;;;5037405;28;20040;-66
2022/05/20 07:49:43;;;;;;;5.38;1.35;;;16.90;63.20;;;;;;5038792;28;20492;-66
2022/05/20 07:52:12;;;;;;;7.78;2.10;;;17.00;63.70;;;;;;5038492;28;20026;-65
2022/05/20 07:54:42;;;;;;;7.28;1.60;;;17.00;63.50;;;;;;5038414;28;20057;-65
2022/05/20 07:57:13;;;;;;;9.32;1.75;;;17.20;63.30;;;;;;5039379;28;20148;-65
2022/05/20 07:59:49;;;;;;;8.20;1.80;;;17.30;62.50;;;;;;5038623;28;20049;-65
2022/05/20 08:02:19;;;;;;;6.25;1.65;;;17.40;62.90;;;;;;5038670;28;20049;-65
2022/05/20 08:05:00;;;;;;;5.55;1.55;;;17.60;62.40;;;;;;5038438;28;20466;-65
2022/05/20 08:07:31;;;;;;;6.05;1.42;;;17.70;61.70;;;;;;5038164;28;20069;-65
2022/05/20 08:10:02;;;;;;;5.85;1.88;;;17.80;61.00;;;;;;5038308;28;20025;-65
2022/05/20 08:12:28;;;;;;;7.57;1.80;;;17.90;60.40;;;;;;5038614;28;20033;-65
2022/05/20 08:14:54;;;;;;;5.45;1.30;;;17.90;60.50;;;;;;5038280;28;20075;-65
2022/05/20 08:17:24;;;;;;;9.85;1.70;;;17.80;60.60;;;;;;5038240;28;20040;-65
2022/05/20 08:19:54;;;;;;;7.18;1.63;;;17.80;60.80;;;;;;5038132;28;20108;-65
2022/05/20 08:22:25;;;;;;;6.65;1.58;;;17.80;60.40;;;;;;5038028;28;20092;-65
2022/05/20 08:24:57;;;;;;;6.40;1.52;;;17.80;60.80;;;;;;5038321;28;20087;-65
2022/05/20 08:27:25;;;;;;;4.22;1.48;;;17.80;61.00;;;;;;5036608;28;20031;-65
2022/05/20 08:29:51;;;;;;;5.00;1.38;;;17.90;60.90;;;;;;5037965;28;20017;-65
2022/05/20 08:32:17;;;;;;;5.97;1.52;;;17.90;60.90;;;;;;5038389;28;20028;-65
2022/05/20 08:34:44;;;;;;;6.18;1.73;;;18.00;61.30;;;;;;5037873;28;20021;-65
2022/05/20 08:37:11;;;;;;;4.85;1.33;;;18.10;61.20;;;;;;5038041;28;20026;-65
2022/05/20 08:39:38;;;;;;;7.18;1.60;;;18.20;60.90;;;;;;5037808;28;20022;-65
2022/05/20 08:42:10;;;;;;;5.28;1.50;;;18.10;61.00;;;;;;5037959;28;20025;-65
2022/05/20 08:44:36;;;;;;;9.00;1.90;;;18.20;61.00;;;;;;5038192;28;20079;-65
2022/05/20 08:47:20;;;;;;;6.63;1.85;;;18.10;61.00;;;;;;5037915;28;20076;-65
2022/05/20 08:49:45;;;;;;;6.03;1.75;;;18.20;61.60;;;;;;5037974;28;20017;-65
2022/05/20 08:52:11;;;;;;;6.35;1.83;;;18.20;61.10;;;;;;5037546;28;20032;-65
2022/05/20 08:54:39;;;;;;;6.47;1.60;;;18.30;61.40;;;;;;5037792;28;20021;-65
2022/05/20 08:57:23;;;;;;;5.43;1.50;;;18.40;61.60;;;;;;5037436;28;20037;-65
2022/05/20 08:59:50;;;;;;;6.43;1.50;;;18.40;61.30;;;;;;5037268;28;20515;-65
2022/05/20 09:02:16;;;;;;;5.57;1.30;;;18.40;61.00;;;;;;5036711;28;20021;-65
2022/05/20 09:04:43;;;;;;;5.38;1.30;;;18.40;61.30;;;;;;5036592;28;20108;-65
2022/05/20 09:07:11;;;;;;;4.78;1.38;;;18.50;61.60;;;;;;5037394;28;20033;-65
2022/05/20 09:09:47;;;;;;;4.60;1.50;;;18.60;62.30;;;;;;5037623;28;20022;-65
2022/05/20 09:12:32;;;;;;;5.90;1.70;;;18.70;62.20;;;;;;5037536;28;20429;-65
2022/05/20 09:18:11;;;;;;;4.80;2.28;;;18.90;62.10;;;;;;5037542;28;20024;-65
2022/05/20 09:20:51;;;;;;;3.45;1.50;;;19.10;61.20;;;;;;5037329;28;20025;-65
2022/05/20 09:23:20;;;;;;;2.10;1.13;;;19.20;61.50;;;;;;5037286;28;20027;-65
2022/05/20 09:25:55;;;;;;;4.28;1.50;;;19.30;61.70;;;;;;5037686;28;20038;-65
2022/05/20 09:28:33;;;;;;;3.95;1.30;;;19.40;60.90;;;;;;5035763;28;20024;-65
2022/05/20 09:31:06;;;;;;;3.83;1.38;;;19.60;60.90;;;;;;5037370;28;20101;-65
2022/05/20 09:33:35;;;;;;;5.38;1.60;;;19.70;59.50;;;;;;5036903;28;20029;-65
2022/05/20 09:36:03;;;;;;;3.40;1.45;;;19.80;60.50;;;;;;5037042;28;20099;-65
2022/05/20 09:38:36;;;;;;;2.90;1.30;;;20.00;60.80;;;;;;5037223;28;20026;-65
2022/05/20 09:41:15;;;;;;;3.30;1.25;;;20.20;59.50;;;;;;5037194;28;20374;-65
2022/05/20 09:43:45;;;;;;;3.17;1.30;;;20.50;58.60;;;;;;5037029;28;20037;-65
2022/05/20 09:46:33;;;;;;;2.78;1.40;;;20.70;57.70;;;;;;5037180;28;20022;-65
2022/05/20 09:49:15;;;;;;;3.55;1.02;;;20.90;57.80;;;;;;5037413;28;20045;-65
2022/05/20 09:51:49;;;;;;;3.08;1.27;;;21.20;56.50;;;;;;5036959;28;20033;-65
2022/05/20 09:54:19;;;;;;;;;;;21.60;56.80;;;;;;5037696;28;20454;-65
2022/05/20 09:56:56;;;;;;;2.83;1.20;;;22.00;57.60;;;;;;5036722;28;19924;-65
2022/05/20 09:59:37;;;;;;;2.90;0.90;;;22.10;55.10;;;;;;5036766;28;20057;-65
2022/05/20 10:02:25;;;;;;;4.25;1.25;;;22.40;53.70;;;;;;5037024;28;20028;-65
2022/05/20 10:05:11;;;;;;;3.55;1.30;;;22.70;51.80;;;;;;5036768;28;20029;-65
2022/05/20 10:07:56;;;;;;;2.92;1.40;;;23.00;53.60;;;;;;5035164;28;20021;-65
2022/05/20 10:10:40;;;;;;;2.58;1.27;;;23.30;48.80;;;;;;5044902;28;20021;-65
2022/05/20 10:13:08;;;;;;;;;;;23.70;49.20;;;;;;5037482;28;20101;-65
2022/05/20 10:15:48;;;;;;;4.00;1.30;;;24.00;52.20;;;;;;5039585;28;19905;-65
2022/05/20 10:18:34;;;;;;;2.90;1.23;;;24.50;53.20;;;;;;5040663;28;20036;-65
2022/05/20 10:21:06;;;;;;;3.15;1.40;;;25.00;47.20;;;;;;5040752;28;20454;-65
2022/05/20 10:23:58;;;;;;;3.25;1.17;;;25.30;51.90;;;;;;5040393;28;20385;-65
2022/05/20 10:26:51;;;;;;;2.03;1.10;;;25.60;44.90;;;;;;5039001;28;20563;-65
2022/05/20 10:32:34;;;;;;;2.83;1.05;;;26.30;46.10;;;;;;5040182;28;20037;-65
2022/05/20 10:35:03;;;;;;;2.35;1.15;;;26.70;46.30;;;;;;5040104;28;20022;-65
2022/05/20 10:37:49;;;;;;;3.20;1.00;;;27.20;46.20;;;;;;5040229;28;20029;-65
2022/05/20 10:40:24;;;;;;;1.33;1.08;;;27.50;45.70;;;;;;5039991;28;20030;-66
2022/05/20 10:43:02;;;;;;;3.65;1.13;;;27.70;43.70;;;;;;5039557;28;20466;-66
2022/05/20 10:48:42;;;;;;;3.42;1.25;;;28.10;43.80;;;;;;5060084;28;20032;-66
2022/05/20 10:51:35;;;;;;;2.63;1.13;;;28.10;42.60;;;;;;5043585;28;20068;-66
2022/05/20 10:54:38;;;;;;;3.40;1.35;;;28.30;45.80;;;;;;5040377;28;20036;-66
2022/05/20 10:57:04;;;;;;;3.05;1.25;;;28.50;47.80;;;;;;5040395;28;20029;-66
2022/05/20 10:59:30;;;;;;;5.25;1.27;;;28.40;45.00;;;;;;5039683;28;20083;-65
2022/05/20 11:02:19;;;;;;;3.85;1.23;;;28.40;45.50;;;;;;5039989;28;20029;-65
2022/05/20 11:04:56;;;;;;;5.40;1.55;;;28.30;41.40;;;;;;5039764;28;20030;-65
2022/05/20 11:07:47;;;;;;;5.28;1.40;;;28.00;42.10;;;;;;5039857;28;20014;-65
2022/05/20 11:10:27;;;;;;;4.38;1.60;;;27.80;41.60;;;;;;5040047;28;20347;-65
2022/05/20 11:13:02;;;;;;;5.60;1.60;;;27.90;45.00;;;;;;5039670;28;20021;-65
2022/05/20 11:16:04;;;;;;;4.85;1.60;;;28.00;41.70;;;;;;5039680;28;20029;-65
2022/05/20 11:18:39;;;;;;;3.42;1.50;;;28.00;41.70;;;;;;5039466;28;20095;-65
2022/05/20 11:21:28;;;;;;;3.92;1.88;;;28.10;43.50;;;;;;5039454;28;20056;-65
2022/05/20 11:24:06;;;;;;;5.30;1.65;;;27.80;44.10;;;;;;5038339;28;20041;-65
2022/05/20 11:26:41;;;;;;;4.78;1.70;;;27.90;44.90;;;;;;5038333;28;20420;-65
2022/05/20 11:29:09;;;;;;;4.70;1.55;;;27.80;44.40;;;;;;5039557;28;20084;-65
2022/05/20 11:31:57;;;;;;;5.03;1.63;;;27.50;43.30;;;;;;5039093;28;20493;-65
2022/05/20 11:34:47;;;;;;;5.95;1.55;;;27.40;43.00;;;;;;5039415;28;20097;-65
2022/05/20 11:37:32;;;;;;;5.88;1.40;;;27.30;43.70;;;;;;5037724;28;20091;-65
2022/05/20 11:40:08;;;;;;;4.43;1.27;;;27.40;42.80;;;;;;5038945;28;20494;-65
2022/05/20 11:43:02;;;;;;;7.75;1.50;;;27.70;44.50;;;;;;5038787;28;20499;-65
2022/05/20 11:45:28;;;;;;;5.45;1.38;;;27.80;42.40;;;;;;5038973;28;20025;-65
2022/05/20 11:48:12;;;;;;;2.35;1.02;;;28.10;43.50;;;;;;5038998;28;20446;-65
2022/05/20 11:51:15;;;;;;;2.75;1.05;;;27.80;42.60;;;;;;5039119;28;20084;-65
2022/05/20 11:54:01;;;;;;;3.45;1.10;;;27.70;42.60;;;;;;5038981;28;20064;-65
2022/05/20 11:56:48;;;;;;;5.57;1.42;;;27.40;42.90;;;;;;5038261;28;20095;-65
2022/05/20 11:59:22;;;;;;;4.30;1.13;;;27.60;44.30;;;;;;5038617;28;20025;-65
2022/05/20 12:01:51;;;;;;;4.72;1.40;;;27.70;42.70;;;;;;5037736;28;20112;-65
2022/05/20 12:04:20;;;;;;;5.82;1.48;;;27.70;43.90;;;;;;5036638;28;20092;-64
2022/05/20 12:06:51;;;;;;;4.97;1.30;;;27.60;43.00;;;;;;5037948;28;20021;-64
2022/05/20 12:09:31;;;;;;;9.35;2.05;;;27.60;44.30;;;;;;5038951;28;20101;-64
2022/05/20 12:12:09;;;;;;;5.07;1.45;;;27.30;42.90;;;;;;5038417;28;20417;-64
2022/05/20 12:14:53;;;;;;;6.38;1.40;;;27.20;42.40;;;;;;5038143;28;20029;-64
2022/05/20 12:17:47;;;;;;;5.03;1.70;;;27.50;44.30;;;;;;5038463;28;20017;-64
2022/05/20 12:26:24;;;;;;;5.93;1.60;;;27.90;42.70;;;;;;5038432;28;20034;-65
2022/05/20 12:28:50;;;;;;;4.82;1.38;;;27.70;43.40;;;;;;5038430;28;20014;-65
2022/05/20 12:31:37;;;;;;;6.55;1.70;;;27.40;42.70;;;;;;5038254;28;20104;-65
2022/05/20 12:34:06;;;;;;;5.03;1.40;;;27.60;43.50;;;;;;5038231;28;20018;-65
2022/05/20 12:36:39;;;;;;;9.07;2.25;;;27.60;43.80;;;;;;5038177;28;20030;-65
2022/05/20 12:39:08;;;;;;;7.72;2.10;;;27.50;43.50;;;;;;5038015;28;20389;-65
2022/05/20 12:41:49;;;;;;;5.78;1.50;;;27.50;44.10;;;;;;5038017;28;20063;-65
2022/05/20 12:44:21;;;;;;;5.35;1.58;;;27.50;43.30;;;;;;5037982;28;20025;-66
2022/05/20 12:47:08;;;;;;;6.95;2.05;;;27.50;43.60;;;;;;5037928;28;20032;-65
2022/05/20 12:49:38;;;;;;;5.55;1.80;;;27.40;43.60;;;;;;5037903;28;20017;-65
2022/05/20 12:52:26;;;;;;;7.78;1.73;;;27.40;43.70;;;;;;5038017;28;20385;-65
2022/05/20 12:54:58;;;;;;;7.25;1.90;;;27.40;43.40;;;;;;5037713;28;20501;-66
2022/05/20 12:57:28;;;;;;;7.47;1.92;;;27.50;42.60;;;;;;5037627;28;20033;-65
2022/05/20 13:00:16;;;;;;;6.00;1.67;;;27.80;43.40;;;;;;5037429;28;20048;-66
2022/05/20 13:02:46;;;;;;;9.27;1.70;;;27.40;43.00;;;;;;5037717;28;20099;-65
2022/05/20 13:05:28;;;;;;;6.57;2.03;;;26.90;43.60;;;;;;5037500;28;20074;-65
2022/05/20 13:07:55;;;;;;;6.85;1.90;;;26.90;43.20;;;;;;5037734;28;20425;-65
2022/05/20 13:10:27;;;;;;;7.15;1.80;;;27.00;43.10;;;;;;5037380;28;20029;-65
2022/05/20 13:12:57;;;;;;;7.50;1.90;;;26.80;43.20;;;;;;5037697;28;20026;-65
2022/05/20 13:15:23;;;;;;;9.27;1.80;;;26.60;43.60;;;;;;5037460;28;20025;-65
2022/05/20 13:18:04;;;;;;;8.20;1.92;;;26.60;44.00;;;;;;5037515;28;20101;-65
2022/05/20 13:20:32;;;;;;;5.63;1.60;;;26.60;44.50;;;;;;5037275;28;20029;-65
2022/05/20 13:23:05;;;;;;;6.78;1.92;;;26.40;43.70;;;;;;5037139;28;20029;-65
2022/05/20 13:25:31;;;;;;;6.88;1.92;;;26.60;44.60;;;;;;5037457;28;20083;-65
2022/05/20 13:27:59;;;;;;;5.40;1.80;;;26.20;44.50;;;;;;5037312;28;20092;-65
2022/05/20 13:30:30;;;;;;;7.38;1.77;;;26.20;45.70;;;;;;5037110;28;20033;-65
2022/05/20 13:33:09;;;;;;;5.75;1.60;;;26.40;45.50;;;;;;5035728;28;20029;-65
2022/05/20 13:35:49;;;;;;;5.82;1.83;;;26.50;45.50;;;;;;5037032;28;20563;-65
2022/05/20 13:38:15;;;;;;;6.75;1.77;;;26.20;44.50;;;;;;5037312;28;20026;-65
2022/05/20 13:40:43;;;;;;;6.93;2.10;;;26.00;45.60;;;;;;5036998;28;20036;-65
2022/05/20 13:43:15;;;;;;;6.93;1.98;;;25.90;45.10;;;;;;5037019;28;20034;-65
2022/05/20 13:51:25;;;;;;;9.07;1.92;;;24.90;47.20;;;;;;5041048;28;20031;-65